Terminal Aerodrome Forecast
Issued by NWS Kansas City/Pleasant Hill, MO

Home | Current Version | Previous Version | Text Only | Print | Product List | Glossary On
Versions: 1 2 3 4 5 6 7 8 9 10 11 12 13 14 15 16 17 18 19
000
FTUS43 KEAX 201736
TAFMCI
TAF
KMCI 201736Z 2018/2118 19008KT P6SM OVC025
     FM210400 16006KT 5SM -DZ OVC015
     FM210700 16007KT 4SM -DZ BR OVC009
     FM211600 18008KT P6SM OVC020=

USA.gov is the U.S. government's official web portal to all federal, state and local government web resources and services.